17 Oct 2018 12:24 UTC 2018290+12:24 UTC

Overview Datums Bench Marks Data Query Site Visit Daily QC Messages Attributes

170: National Park Service - Baffin Bay

27° 17' 49" N   97° 24' 17" W
NPSBB
United States National Park Service United States National Park Service

Station Information

National Park Service - Baffin Bay
National Park Service - Baffin Bay
more pictures
 
Station Name:National Park Service - Baffin Bay
DNR ID:170
Location:27° 17' 49" N, 97° 24' 17" W

Water Level Forecasts

Latest Observations

Series Metric English Marine Observed at
Water Temperature 17.5 °C 63.5 °F 63.5 °F Oct 17 07:12 CDT
00h07m ago
Salinity 32.900 psu 32.900 psu 32.900 psu Oct 17 07:12 CDT
00h07m ago
pH 8.15 pH 8.15 pH 8.15 pH Oct 17 07:12 CDT
00h07m ago
Turbidity 15 ntu 15 ntu 15 ntu Oct 17 07:12 CDT
00h07m ago
Dissolved Oxygen 7.54 mg/L 0.000471 lb/ft3 0.000471 lb/ft3 Oct 17 07:12 CDT
00h07m ago

Maps

National Park Service - Baffin Bay
All Stations in Area
Entire Network
 

Recent Observations

Date/Time Water
Temp (°F)
Sal (psu) pH (pH) Turb (ntu) DO (lb/ft3)
Oct 17 07:00 CDT 63.7 33.000 8.15 16 0.000469
Oct 17 06:00 CDT 63.9 32.900 8.15 18 0.000471
Oct 17 05:00 CDT 63.9 32.900 8.13 17 0.000471
Oct 17 04:00 CDT 64.0 32.800 8.13 18 0.000474
Oct 17 03:00 CDT 64.4 32.800 8.13 18 0.000473
Oct 17 02:00 CDT 64.6 32.700 8.13 16 0.000474
Oct 17 01:00 CDT 64.6 32.700 8.13 17 0.000480
Oct 17 00:00 CDT 64.8 32.600 8.12 18 0.000484
Oct 16 23:00 CDT 64.9 32.500 8.12 21 0.000485
Oct 16 22:00 CDT 65.8 32.400 8.12 23 0.000479
Oct 16 21:00 CDT 66.2 32.400 8.12 21 0.000476
Oct 16 20:00 CDT 66.0 32.500 8.11 17 0.000483
Oct 16 19:00 CDT 66.4 32.500 8.10 20 0.000481
Oct 16 18:00 CDT 66.7 32.400 8.10 22 0.000485
Oct 16 17:00 CDT 67.3 32.400 8.11 21 0.000487
Oct 16 16:00 CDT 67.5 32.300 8.12 20 0.000493
Oct 16 15:00 CDT 67.5 32.400 8.11 19 0.000483
Oct 16 14:00 CDT 67.6 32.300 8.11 20 0.000476
Oct 16 13:00 CDT 67.3 32.300 8.10 25 0.000473
Oct 16 12:00 CDT 66.6 32.500 8.06 30 0.000464
Oct 16 11:00 CDT 66.7 32.400 8.06 41 0.000453
Oct 16 10:00 CDT 66.9 32.500 8.06 39 0.000447
Oct 16 09:00 CDT 67.3 32.500 8.05 39 0.000436
Oct 16 08:00 CDT 67.5 32.600 8.05 26 0.000437
Oct 16 07:00 CDT 68.0 32.600 8.05 29 0.000433

Historical Data Availability